Midway, Kentucky
Current Conditions -  °F | °C
As of 12:54 AM on Saturday 20 Dec 2014 (Local Time) from KLEX Reporting Station
Clear Clear  
Wind Chill: 22°   Ceiling: Unl
Heat Index: 27°   Visibility: 9mi
Dew Point: 22°   Wind: 5mph
Humidity: 81%   Direction: 80°E
Pressure: 30.24"   Gusts: NA
Location:  38.15°N, 84.68°W
Report Text: KLEX 200554Z 08004KT 9SM CLR M03/M06 A3024 RMK AO2 SLP249 T10281056 11028 21056 58001
Loading
Personal Weather Stations






























Interactive Weather Map New forecast layout! Learn more

10-Day Weather Forecast

Advertisements
Track Severe Weather on mobile